createdAt,value
2018-11-27T00:00:26.675Z,35.40
2018-11-27T00:02:57.881Z,36.40
2018-11-27T00:05:26.814Z,35.65
2018-11-27T00:08:14.445Z,35.33
2018-11-27T00:10:43.247Z,35.43
2018-11-27T00:13:12.105Z,36.55
2018-11-27T00:15:40.903Z,36.58
2018-11-27T00:18:09.809Z,36.55
2018-11-27T00:20:38.592Z,36.23
2018-11-27T00:23:07.414Z,36.40
2018-11-27T00:25:36.284Z,37.07
2018-11-27T00:28:05.139Z,36.17
2018-11-27T00:30:33.924Z,36.38
2018-11-27T00:33:02.737Z,35.85
2018-11-27T00:35:31.565Z,36.23
2018-11-27T00:38:00.519Z,36.30
2018-11-27T00:40:29.401Z,35.35
2018-11-27T00:42:58.259Z,36.42
2018-11-27T00:45:27.086Z,35.52
2018-11-27T00:47:55.882Z,35.83
2018-11-27T00:50:24.892Z,35.73
2018-11-27T00:52:53.706Z,36.53
2018-11-27T00:55:22.485Z,35.45
2018-11-27T00:57:52.212Z,35.73
2018-11-27T01:00:21.755Z,35.38
2018-11-27T01:02:50.678Z,34.90
2018-11-27T01:05:20.515Z,37.55
2018-11-27T01:07:49.295Z,35.98
2018-11-27T01:10:20.127Z,34.70
2018-11-27T01:12:48.927Z,36.63
2018-11-27T01:15:17.690Z,36.38
2018-11-27T01:17:49.673Z,36.17
2018-11-27T01:20:19.311Z,36.25
2018-11-27T01:22:48.196Z,36.48
2018-11-27T01:25:17.007Z,35.98
2018-11-27T01:27:45.766Z,36.65
2018-11-27T01:30:16.755Z,36.10
2018-11-27T01:32:45.615Z,36.68
2018-11-27T01:35:18.359Z,36.93
2018-11-27T01:37:47.755Z,36.88
2018-11-27T01:40:17.463Z,36.40
2018-11-27T01:42:47.001Z,36.23
2018-11-27T01:45:18.067Z,36.75
2018-11-27T01:47:47.062Z,35.63
2018-11-27T01:50:16.469Z,36.05
2018-11-27T01:52:45.306Z,36.55
2018-11-27T01:55:17.844Z,37.63
2018-11-27T01:57:46.697Z,36.42
2018-11-27T02:00:21.545Z,37.17
2018-11-27T02:02:50.629Z,36.65
2018-11-27T02:05:19.443Z,36.35
2018-11-27T02:07:48.287Z,36.50
2018-11-27T02:10:17.061Z,34.78
2018-11-27T02:12:47.360Z,36.88
2018-11-27T02:15:17.345Z,36.40
2018-11-27T02:17:46.089Z,36.80
2018-11-27T02:20:14.807Z,36.83
2018-11-27T02:22:43.563Z,36.95
2018-11-27T02:25:28.062Z,37.33
2018-11-27T02:27:57.035Z,37.48
2018-11-27T02:30:26.677Z,37.27
2018-11-27T02:32:55.427Z,37.53
2018-11-27T02:35:24.858Z,37.03
2018-11-27T02:37:55.261Z,36.63
2018-11-27T02:40:24.017Z,36.70
2018-11-27T02:42:52.793Z,36.53
2018-11-27T02:45:22.482Z,36.63
2018-11-27T02:47:51.838Z,35.78
2018-11-27T02:50:22.499Z,35.85
2018-11-27T02:52:51.235Z,36.05
2018-11-27T02:55:20.866Z,36.05
2018-11-27T02:57:49.661Z,36.35
2018-11-27T03:00:21.279Z,36.13
2018-11-27T03:02:50.103Z,36.57
2018-11-27T03:05:21.532Z,36.13
2018-11-27T03:07:50.270Z,35.88
2018-11-27T03:10:19.018Z,36.28
2018-11-27T03:12:47.816Z,35.93
2018-11-27T03:15:17.214Z,36.75
2018-11-27T03:17:46.098Z,36.68
2018-11-27T03:20:15.535Z,36.25
2018-11-27T03:22:44.312Z,36.50
2018-11-27T03:25:15.709Z,36.60
2018-11-27T03:27:45.310Z,36.17
2018-11-27T03:30:25.702Z,36.17
2018-11-27T03:32:55.237Z,37.13
2018-11-27T03:35:24.706Z,36.60
2018-11-27T03:37:53.557Z,36.48
2018-11-27T03:40:24.324Z,35.38
2018-11-27T03:42:53.106Z,36.42
2018-11-27T03:45:22.518Z,35.88
2018-11-27T03:47:51.362Z,35.63
2018-11-27T03:50:22.870Z,36.55
2018-11-27T03:52:51.680Z,36.40
2018-11-27T03:55:20.550Z,37.57
2018-11-27T03:57:49.311Z,35.35
2018-11-27T04:00:23.663Z,36.80
2018-11-27T04:02:56.610Z,37.78
2018-11-27T04:05:32.203Z,37.00
2018-11-27T04:08:01.003Z,37.07
2018-11-27T04:10:29.775Z,36.77
2018-11-27T04:12:58.595Z,36.93
2018-11-27T04:15:27.411Z,36.83
2018-11-27T04:17:56.227Z,36.05
2018-11-27T04:20:25.158Z,36.50
2018-11-27T04:22:53.970Z,35.98
2018-11-27T04:25:22.742Z,35.40
2018-11-27T04:27:51.530Z,36.15
2018-11-27T04:30:21.208Z,36.00
2018-11-27T04:32:50.047Z,35.25
2018-11-27T04:35:19.896Z,34.98
2018-11-27T04:37:48.819Z,35.63
2018-11-27T04:40:19.316Z,35.03
2018-11-27T04:42:48.130Z,34.53
2018-11-27T04:45:19.536Z,34.23
2018-11-27T04:47:48.360Z,34.10
2018-11-27T04:50:17.724Z,35.10
2018-11-27T04:52:46.542Z,34.08
2018-11-27T04:55:17.163Z,34.35
2018-11-27T04:57:46.867Z,33.80
2018-11-27T05:00:17.528Z,35.30
2018-11-27T05:02:46.345Z,33.17
2018-11-27T05:07:55.119Z,34.70
2018-11-27T05:10:24.723Z,33.95
2018-11-27T05:12:53.630Z,33.92
2018-11-27T05:15:24.030Z,34.23
2018-11-27T05:17:54.003Z,34.13
2018-11-27T05:20:22.820Z,34.50
2018-11-27T05:22:51.641Z,33.60
2018-11-27T05:25:20.809Z,33.70
2018-11-27T05:27:51.820Z,33.58
2018-11-27T05:30:22.461Z,34.13
2018-11-27T05:32:51.287Z,33.85
2018-11-27T05:35:22.244Z,33.13
2018-11-27T05:37:51.261Z,34.23
2018-11-27T05:40:22.902Z,33.42
2018-11-27T05:42:56.006Z,31.95
2018-11-27T05:45:25.398Z,33.33
2018-11-27T05:47:54.241Z,32.17
2018-11-27T05:50:23.056Z,32.30
2018-11-27T05:52:51.891Z,32.08
2018-11-27T05:55:20.720Z,31.37
2018-11-27T05:57:51.009Z,30.25
2018-11-27T06:00:24.810Z,29.37
2018-11-27T06:02:54.934Z,29.52
2018-11-27T06:05:23.912Z,29.07
2018-11-27T06:07:52.775Z,27.25
2018-11-27T06:10:22.190Z,27.00
2018-11-27T06:12:51.008Z,26.12
2018-11-27T06:15:20.893Z,25.40
2018-11-27T06:17:51.059Z,25.55
2018-11-27T06:20:20.827Z,25.97
2018-11-27T06:22:49.688Z,26.17
2018-11-27T06:25:19.590Z,26.70
2018-11-27T06:27:52.810Z,26.23
2018-11-27T06:30:22.831Z,26.35
2018-11-27T06:32:55.455Z,27.13
2018-11-27T06:35:26.586Z,26.90
2018-11-27T06:37:55.410Z,26.20
2018-11-27T06:40:26.403Z,27.27
2018-11-27T06:42:55.199Z,24.45
2018-11-27T06:45:24.296Z,25.40
2018-11-27T06:47:53.291Z,24.35
2018-11-27T06:50:22.679Z,24.40
2018-11-27T06:52:51.478Z,24.07
2018-11-27T06:55:21.258Z,24.27
2018-11-27T06:57:50.137Z,24.57
2018-11-27T07:00:21.124Z,23.80
2018-11-27T07:02:49.952Z,24.10
2018-11-27T07:05:18.756Z,23.55
2018-11-27T07:07:47.551Z,24.27
2018-11-27T07:10:19.359Z,24.00
2018-11-27T07:12:49.169Z,24.37
2018-11-27T07:15:19.391Z,24.05
2018-11-27T07:17:48.218Z,24.15
2018-11-27T07:20:17.057Z,23.30
2018-11-27T07:22:45.872Z,24.07
2018-11-27T07:25:15.463Z,23.62
2018-11-27T07:27:45.864Z,25.50
2018-11-27T07:30:20.386Z,27.70
2018-11-27T07:32:49.127Z,31.37
2018-11-27T07:35:18.242Z,22.98
2018-11-27T07:37:47.155Z,22.63
2018-11-27T07:40:23.674Z,22.32
2018-11-27T07:42:53.847Z,22.40
2018-11-27T07:45:23.462Z,21.33
2018-11-27T07:47:52.246Z,22.58
2018-11-27T07:50:21.094Z,22.53
2018-11-27T07:52:49.982Z,22.10
2018-11-27T07:55:19.758Z,22.50
2018-11-27T07:57:48.934Z,22.60
2018-11-27T08:00:20.354Z,22.33
2018-11-27T08:02:50.291Z,22.22
2018-11-27T08:05:25.022Z,22.75
2018-11-27T08:07:55.700Z,22.55
2018-11-27T08:10:26.702Z,22.05
2018-11-27T08:12:55.535Z,21.57
2018-11-27T08:15:25.670Z,21.80
2018-11-27T08:17:54.463Z,22.17
2018-11-27T08:20:26.462Z,21.73
2018-11-27T08:22:55.275Z,21.90
2018-11-27T08:25:24.107Z,21.40
2018-11-27T08:27:52.930Z,21.47
2018-11-27T08:30:22.322Z,22.20
2018-11-27T08:32:51.519Z,20.77
2018-11-27T08:35:23.222Z,21.55
2018-11-27T08:37:53.118Z,20.68
2018-11-27T08:40:23.648Z,19.85
2018-11-27T08:42:52.450Z,20.77
2018-11-27T08:45:22.231Z,19.98
2018-11-27T08:47:51.831Z,18.70
2018-11-27T08:50:21.746Z,19.35
2018-11-27T08:52:52.573Z,18.85
2018-11-27T08:55:26.493Z,18.77
2018-11-27T08:57:55.426Z,18.27
2018-11-27T09:00:25.187Z,19.02
2018-11-27T09:02:53.976Z,18.60
2018-11-27T09:05:22.777Z,18.92
2018-11-27T09:07:51.558Z,17.80
2018-11-27T09:10:21.603Z,17.82
2018-11-27T09:12:50.430Z,17.90
2018-11-27T09:15:20.238Z,19.85
2018-11-27T09:17:53.661Z,19.57
2018-11-27T09:20:22.494Z,17.60
2018-11-27T09:22:51.264Z,17.80
2018-11-27T09:25:20.035Z,18.02
2018-11-27T09:27:48.863Z,18.45
2018-11-27T09:30:19.870Z,16.80
2018-11-27T09:32:48.682Z,17.80
2018-11-27T09:35:17.923Z,18.23
2018-11-27T09:37:46.768Z,17.75
2018-11-27T09:40:17.006Z,16.62
2018-11-27T09:42:45.883Z,16.77
2018-11-27T09:45:16.711Z,16.37
2018-11-27T09:47:46.397Z,17.55
2018-11-27T09:50:15.822Z,16.40
2018-11-27T09:52:44.688Z,16.12
2018-11-27T09:55:16.451Z,15.78
2018-11-27T09:57:45.272Z,16.48
2018-11-27T10:00:25.431Z,16.50
2018-11-27T10:02:55.526Z,16.40
2018-11-27T10:05:24.353Z,16.05
2018-11-27T10:07:53.164Z,15.75
2018-11-27T10:10:22.854Z,15.13
2018-11-27T10:12:52.062Z,16.17
2018-11-27T10:15:22.869Z,15.28
2018-11-27T10:17:52.975Z,15.83
2018-11-27T10:20:23.034Z,15.53
2018-11-27T10:22:51.823Z,15.70
2018-11-27T10:25:20.648Z,15.03
2018-11-27T10:27:49.432Z,14.40
2018-11-27T10:30:19.695Z,15.35
2018-11-27T10:32:49.214Z,15.37
2018-11-27T10:35:34.833Z,14.83
2018-11-27T10:38:03.625Z,16.23
2018-11-27T10:40:32.425Z,15.00
2018-11-27T10:43:01.215Z,14.10
2018-11-27T10:45:30.003Z,14.40
2018-11-27T10:47:58.806Z,15.00
2018-11-27T10:50:27.598Z,14.70
2018-11-27T10:52:56.625Z,15.43
2018-11-27T10:55:26.050Z,15.50
2018-11-27T10:57:54.855Z,15.78
2018-11-27T11:00:29.720Z,14.93
2018-11-27T11:03:04.478Z,14.98
2018-11-27T11:05:34.454Z,14.90
2018-11-27T11:08:03.344Z,15.38
2018-11-27T11:10:32.162Z,15.30
2018-11-27T11:13:00.949Z,15.50
2018-11-27T11:15:29.729Z,15.55
2018-11-27T11:17:58.570Z,14.90
2018-11-27T11:20:27.432Z,14.58
2018-11-27T11:22:56.303Z,14.35
2018-11-27T11:25:25.223Z,12.58
2018-11-27T11:27:58.850Z,13.00
2018-11-27T11:30:27.701Z,12.85
2018-11-27T11:32:56.478Z,14.03
2018-11-27T11:35:25.314Z,14.40
2018-11-27T11:37:54.161Z,13.90
2018-11-27T11:40:24.374Z,13.47
2018-11-27T11:42:56.386Z,12.00
2018-11-27T11:45:25.300Z,10.38
2018-11-27T11:47:54.077Z,10.43
2018-11-27T11:50:26.214Z,12.73
2018-11-27T11:52:57.261Z,13.08
2018-11-27T11:55:26.050Z,11.93
2018-11-27T11:57:54.851Z,10.93
2018-11-27T12:00:26.675Z,10.80
2018-11-27T12:02:55.514Z,10.40
2018-11-27T12:05:25.186Z,10.08
2018-11-27T12:07:53.158Z,11.18
2018-11-27T12:10:21.975Z,11.83
2018-11-27T12:12:50.854Z,13.07
2018-11-27T12:15:19.940Z,12.60
2018-11-27T12:17:49.201Z,12.13
2018-11-27T12:20:18.968Z,12.43
2018-11-27T12:22:49.166Z,11.43
2018-11-27T12:25:18.030Z,11.25
2018-11-27T12:27:46.824Z,11.20
2018-11-27T12:30:17.512Z,11.43
2018-11-27T12:32:46.287Z,11.50
2018-11-27T12:35:15.580Z,11.40
2018-11-27T12:37:44.350Z,11.48
2018-11-27T12:40:15.080Z,11.95
2018-11-27T12:42:43.851Z,11.57
2018-11-27T12:45:14.977Z,12.58
2018-11-27T12:47:44.108Z,11.95
2018-11-27T12:50:19.258Z,12.10
2018-11-27T12:52:48.095Z,12.60
2018-11-27T12:55:19.188Z,12.20
2018-11-27T12:57:48.053Z,11.90
2018-11-27T13:00:20.960Z,12.40
2018-11-27T13:02:49.819Z,13.15
2018-11-27T13:05:26.613Z,12.65
2018-11-27T13:07:59.699Z,13.83
2018-11-27T13:10:28.493Z,13.00
2018-11-27T13:12:57.269Z,14.93
2018-11-27T13:15:26.062Z,14.78
2018-11-27T13:17:54.847Z,14.53
2018-11-27T13:20:23.619Z,14.38
2018-11-27T13:22:52.434Z,13.80
2018-11-27T13:25:23.503Z,13.85
2018-11-27T13:27:53.914Z,13.40
2018-11-27T13:30:35.010Z,13.72
2018-11-27T13:33:09.903Z,14.00
2018-11-27T13:35:39.060Z,13.70
2018-11-27T13:38:07.882Z,13.38
2018-11-27T13:40:37.018Z,14.13
2018-11-27T13:43:07.231Z,14.38
2018-11-27T13:45:36.746Z,14.00
2018-11-27T13:48:06.758Z,14.05
2018-11-27T13:50:35.580Z,14.90
2018-11-27T13:53:04.386Z,14.55
2018-11-27T13:55:33.219Z,14.57
2018-11-27T13:58:02.045Z,14.73
2018-11-27T14:00:31.052Z,15.10
2018-11-27T14:02:59.849Z,15.58
2018-11-27T14:05:28.667Z,14.28
2018-11-27T14:07:57.475Z,15.20
2018-11-27T14:10:26.295Z,14.45
2018-11-27T14:12:55.068Z,15.05
2018-11-27T14:15:24.677Z,14.20
2018-11-27T14:17:55.155Z,15.00
2018-11-27T14:20:23.973Z,15.47
2018-11-27T14:22:52.790Z,15.03
2018-11-27T14:25:21.589Z,13.95
2018-11-27T14:27:51.494Z,13.90
2018-11-27T14:30:23.050Z,14.60
2018-11-27T14:32:52.171Z,14.20
2018-11-27T14:35:24.847Z,14.90
2018-11-27T14:37:54.585Z,15.38
2018-11-27T14:40:25.625Z,15.18
2018-11-27T14:42:54.506Z,14.60
2018-11-27T14:45:24.694Z,14.95
2018-11-27T14:47:55.367Z,15.40
2018-11-27T14:50:24.229Z,16.10
2018-11-27T14:52:53.295Z,15.75
2018-11-27T14:55:24.611Z,16.75
2018-11-27T14:57:53.474Z,16.32
2018-11-27T15:00:23.274Z,15.55
2018-11-27T15:02:52.148Z,15.13
2018-11-27T15:05:25.583Z,16.70
2018-11-27T15:07:54.410Z,14.43
2018-11-27T15:10:23.249Z,15.88
2018-11-27T15:12:52.093Z,15.32
2018-11-27T15:15:20.987Z,15.18
2018-11-27T15:17:49.770Z,15.30
2018-11-27T15:20:19.482Z,15.35
2018-11-27T15:22:48.316Z,15.60
2018-11-27T15:25:17.175Z,14.98
2018-11-27T15:27:46.038Z,14.95
2018-11-27T15:30:15.915Z,15.40
2018-11-27T15:32:44.814Z,15.45
2018-11-27T15:35:14.091Z,15.30
2018-11-27T15:37:42.885Z,16.52
2018-11-27T15:40:15.718Z,16.17
2018-11-27T15:42:44.527Z,15.80
2018-11-27T15:45:17.466Z,16.35
2018-11-27T15:47:46.589Z,15.70
2018-11-27T15:50:15.346Z,15.43
2018-11-27T15:52:44.166Z,16.52
2018-11-27T15:55:15.971Z,16.40
2018-11-27T15:57:46.287Z,17.50
2018-11-27T16:00:19.265Z,17.12
2018-11-27T16:02:49.383Z,16.97
2018-11-27T16:05:20.848Z,16.10
2018-11-27T16:07:53.437Z,15.95
2018-11-27T16:10:25.097Z,15.67
2018-11-27T16:12:59.090Z,16.42
2018-11-27T16:15:34.525Z,16.48
2018-11-27T16:18:11.103Z,16.10
2018-11-27T16:20:50.683Z,16.60
2018-11-27T16:23:29.319Z,16.30
2018-11-27T16:25:58.096Z,16.73
2018-11-27T16:28:26.872Z,17.25
2018-11-27T16:30:55.655Z,16.60
2018-11-27T16:33:24.427Z,16.27
2018-11-27T16:35:53.181Z,16.50
2018-11-27T16:38:21.973Z,16.77
2018-11-27T16:40:50.950Z,15.70
2018-11-27T16:43:19.736Z,16.23
2018-11-27T16:45:48.529Z,16.50
2018-11-27T16:48:17.305Z,16.42
2018-11-27T16:50:46.078Z,16.55
2018-11-27T16:53:14.860Z,17.67
2018-11-27T16:55:43.638Z,61.68
2018-11-27T16:58:12.427Z,27.52
2018-11-27T17:00:41.261Z,18.25
2018-11-27T17:03:10.045Z,16.85
2018-11-27T17:05:42.326Z,16.45
2018-11-27T17:08:11.094Z,16.80
2018-11-27T17:10:42.426Z,16.45
2018-11-27T17:13:12.055Z,17.62
2018-11-27T17:15:40.850Z,15.90
2018-11-27T17:18:10.173Z,16.30
2018-11-27T17:20:40.278Z,14.90
2018-11-27T17:23:11.623Z,15.65
2018-11-27T17:25:40.382Z,14.87
2018-11-27T17:28:10.983Z,15.10
2018-11-27T17:30:48.874Z,15.00
2018-11-27T17:33:20.805Z,14.95
2018-11-27T17:35:49.603Z,15.35
2018-11-27T17:38:18.422Z,15.60
2018-11-27T17:40:47.233Z,15.83
2018-11-27T17:43:16.022Z,16.53
2018-11-27T17:45:44.819Z,16.35
2018-11-27T17:48:13.747Z,17.32
2018-11-27T17:50:42.571Z,15.68
2018-11-27T17:53:11.436Z,15.88
2018-11-27T17:55:40.247Z,16.15
2018-11-27T17:58:09.093Z,16.15
2018-11-27T18:00:37.929Z,15.25
2018-11-27T18:03:08.231Z,16.05
2018-11-27T18:05:37.031Z,17.00
2018-11-27T18:08:06.863Z,14.98
2018-11-27T18:10:36.263Z,15.23
2018-11-27T18:13:05.935Z,14.23
2018-11-27T18:15:35.637Z,14.58
2018-11-27T18:18:04.503Z,14.68
2018-11-27T18:20:33.337Z,15.60
2018-11-27T18:23:02.206Z,19.57
2018-11-27T18:25:31.054Z,24.77
2018-11-27T18:27:59.922Z,15.45
2018-11-27T18:30:28.743Z,15.88
2018-11-27T18:32:57.586Z,15.05
2018-11-27T18:35:26.390Z,16.00
2018-11-27T18:37:55.215Z,16.75
2018-11-27T18:40:24.022Z,15.72
2018-11-27T18:42:52.817Z,16.57
2018-11-27T18:45:27.075Z,16.32
2018-11-27T18:47:55.868Z,15.90
2018-11-27T18:50:26.125Z,16.97
2018-11-27T18:55:39.692Z,17.23
2018-11-27T18:58:08.572Z,18.15
2018-11-27T19:00:37.358Z,18.00
2018-11-27T19:03:06.201Z,17.98
2018-11-27T19:05:35.035Z,17.30
2018-11-27T19:08:03.867Z,17.77
2018-11-27T19:12:17.486Z,18.60
2018-11-27T19:14:46.322Z,17.55
2018-11-27T19:17:15.167Z,17.90
2018-11-27T19:19:43.987Z,18.05
2018-11-27T19:22:12.827Z,19.65
2018-11-27T19:24:41.650Z,18.45
2018-11-27T19:27:10.489Z,18.48
2018-11-27T19:29:39.290Z,18.40
2018-11-27T19:32:08.108Z,18.62
2018-11-27T19:34:36.915Z,19.00
2018-11-27T19:37:05.754Z,18.27
2018-11-27T19:39:34.589Z,18.25
2018-11-27T19:42:03.521Z,19.65
2018-11-27T19:44:32.482Z,18.75
2018-11-27T19:47:01.328Z,19.00
2018-11-27T19:49:30.150Z,19.67
2018-11-27T19:51:59.010Z,19.77
2018-11-27T19:54:28.165Z,19.15
2018-11-27T19:56:57.328Z,19.48
2018-11-27T19:59:27.242Z,19.77
2018-11-27T20:01:56.886Z,20.50
2018-11-27T20:04:25.734Z,20.57
2018-11-27T20:06:58.839Z,20.32
2018-11-27T20:09:27.666Z,19.57
2018-11-27T20:11:56.563Z,19.80
2018-11-27T20:14:25.522Z,20.30
2018-11-27T20:16:54.352Z,19.47
2018-11-27T20:19:23.163Z,20.60
2018-11-27T20:21:51.983Z,20.62
2018-11-27T20:24:20.775Z,21.17
2018-11-27T20:26:49.647Z,21.73
2018-11-27T20:29:18.479Z,21.55
2018-11-27T20:31:47.362Z,21.45
2018-11-27T20:34:16.199Z,20.37
2018-11-27T20:36:45.087Z,21.52
2018-11-27T20:39:13.912Z,22.85
2018-11-27T20:41:42.715Z,21.57
2018-11-27T20:44:11.726Z,21.73
2018-11-27T20:46:40.538Z,21.15
2018-11-27T20:49:09.403Z,20.65
2018-11-27T20:51:38.226Z,21.27
2018-11-27T20:54:07.059Z,20.75
2018-11-27T20:56:35.935Z,21.17
2018-11-27T20:59:04.805Z,20.60
2018-11-27T21:01:34.255Z,21.03
2018-11-27T21:04:03.015Z,20.45
2018-11-27T21:06:31.857Z,19.92
2018-11-27T21:09:00.770Z,20.15
2018-11-27T21:11:29.598Z,20.90
2018-11-27T21:13:58.367Z,19.12
2018-11-27T21:16:27.184Z,19.25
2018-11-27T21:18:55.992Z,19.73
2018-11-27T21:21:24.792Z,19.80
2018-11-27T21:23:53.686Z,21.37
2018-11-27T21:26:22.486Z,20.45
2018-11-27T21:28:51.286Z,20.05
2018-11-27T21:31:24.245Z,20.20
2018-11-27T21:33:48.946Z,21.17
2018-11-27T21:36:17.757Z,20.52
2018-11-27T21:38:46.550Z,20.95
2018-11-27T21:41:16.428Z,21.12
2018-11-27T21:43:45.223Z,20.35
2018-11-27T21:46:14.187Z,20.90
2018-11-27T21:48:42.987Z,21.20
2018-11-27T21:51:11.816Z,21.55
2018-11-27T21:53:40.574Z,21.68
2018-11-27T21:56:09.346Z,21.00
2018-11-27T21:58:38.128Z,21.07
2018-11-27T22:01:06.911Z,21.57
2018-11-27T22:03:35.694Z,21.90
2018-11-27T22:06:04.863Z,22.70
2018-11-27T22:08:33.713Z,22.32
2018-11-27T22:11:02.579Z,21.68
2018-11-27T22:13:31.342Z,21.17
2018-11-27T22:16:00.130Z,21.13
2018-11-27T22:18:28.939Z,21.80
2018-11-27T22:20:57.710Z,20.95
2018-11-27T22:23:26.490Z,22.05
2018-11-27T22:25:55.494Z,23.40
2018-11-27T22:28:24.434Z,22.10
2018-11-27T22:30:53.248Z,22.30
2018-11-27T22:33:22.077Z,21.97
2018-11-27T22:35:50.945Z,21.87
2018-11-27T22:38:19.801Z,21.30
2018-11-27T22:40:48.647Z,20.85
2018-11-27T22:43:17.499Z,21.50
2018-11-27T22:45:46.343Z,22.17
2018-11-27T22:48:15.206Z,22.40
2018-11-27T22:50:44.052Z,20.70
2018-11-27T22:53:12.916Z,21.17
2018-11-27T22:55:41.758Z,21.50
2018-11-27T22:58:10.622Z,21.77
2018-11-27T23:00:44.864Z,21.02
2018-11-27T23:03:13.808Z,20.82
2018-11-27T23:05:42.684Z,21.20
2018-11-27T23:08:11.544Z,21.37
2018-11-27T23:10:41.660Z,20.50
2018-11-27T23:13:10.588Z,21.50
2018-11-27T23:15:39.430Z,21.07
2018-11-27T23:18:08.270Z,20.95
2018-11-27T23:20:37.088Z,20.97
2018-11-27T23:23:05.981Z,21.93
2018-11-27T23:25:34.817Z,21.93
2018-11-27T23:28:03.747Z,21.40
2018-11-27T23:30:32.589Z,21.63
2018-11-27T23:33:01.473Z,21.77
2018-11-27T23:35:30.331Z,21.43
2018-11-27T23:37:59.185Z,21.17
2018-11-27T23:40:28.079Z,21.93
2018-11-27T23:43:03.863Z,21.90
2018-11-27T23:45:32.490Z,22.25
2018-11-27T23:48:01.375Z,23.00
2018-11-27T23:50:30.249Z,21.93
2018-11-27T23:52:59.120Z,21.35
2018-11-27T23:55:27.964Z,22.05
2018-11-27T23:57:56.850Z,22.05
